South Wimbledon, United Kingdom
Current Conditions -  °F | °C
As of 9:50 AM on Sunday 23 Nov 2014 (Local Time) from EGLL Reporting Station
Light Rain Light Rain  
Wind Chill: 48°   Ceiling: 4000
Heat Index: 48°   Visibility: 4mi
Dew Point: 46°   Wind: 3mph
Humidity: 93%   Direction: NA
Pressure: 30.03"   Gusts: NA
Location:  51.42°N, 0.25°W
Report Text: EGLL 230950Z VRB03KT 7000 -RA FEW010 BKN040 09/08 Q1017 TEMPO 4000 RA BKN010
Loading
Personal Weather Stations






























Interactive Weather Map New forecast layout! Learn more

10-Day Weather Forecast

Advertisements
Track Severe Weather on mobile